Time;durP1;ratioP1;P1;durP2;ratioP2;P2;SDS_P1;SDS_P2;PMS_P1;PMS_P2;Temp;Humidity;BMP_temperature;BMP_pressure;BME280_temperature;BME280_humidity;BME280_pressure;Samples;Min_cycle;Max_cycle;Signal;HPM_P1;HPM_P2
2023/08/20 00:02:20;;;;;;;1146.10;999.90;;;27.20;99.90;;;;;;5055491;28;20466;-65
2023/08/20 00:04:48;;;;;;;1508.03;999.90;;;27.20;99.90;;;;;;5055636;28;20020;-65
2023/08/20 00:07:18;;;;;;;1558.28;999.90;;;27.20;99.90;;;;;;5055585;28;20482;-65
2023/08/20 00:09:45;;;;;;;1199.70;999.90;;;27.20;99.90;;;;;;5055290;28;20025;-65
2023/08/20 00:12:11;;;;;;;1197.32;999.90;;;27.20;99.90;;;;;;5055400;28;20025;-66
2023/08/20 00:15:04;;;;;;;471.95;422.63;;;27.20;99.90;;;;;;5055503;28;20021;-66
2023/08/20 00:17:33;;;;;;;479.35;429.77;;;27.20;99.90;;;;;;5055206;28;20025;-67
2023/08/20 00:20:00;;;;;;;1231.07;999.90;;;27.30;99.90;;;;;;5055580;28;20405;-66
2023/08/20 00:22:27;;;;;;;1310.93;999.90;;;27.30;99.90;;;;;;5055105;28;20021;-66
2023/08/20 00:24:54;;;;;;;1192.40;999.90;;;27.30;99.90;;;;;;5055391;28;20027;-66
2023/08/20 00:27:21;;;;;;;1566.35;999.90;;;27.30;99.90;;;;;;5055295;28;20521;-67
2023/08/20 00:29:48;;;;;;;1500.85;999.90;;;27.30;99.90;;;;;;5055004;28;20025;-66
2023/08/20 00:32:15;;;;;;;1486.22;999.90;;;27.40;99.90;;;;;;5054985;28;20024;-67
2023/08/20 00:34:42;;;;;;;1568.03;999.90;;;27.40;99.90;;;;;;5048173;28;20033;-67
2023/08/20 00:37:08;;;;;;;1573.40;999.90;;;27.40;99.90;;;;;;5049109;28;20130;-64
2023/08/20 00:39:35;;;;;;;1560.75;999.90;;;27.50;99.90;;;;;;5040499;28;20488;-65
2023/08/20 00:42:02;;;;;;;1482.85;999.90;;;27.60;99.90;;;;;;5035031;28;20025;-65
2023/08/20 00:44:29;;;;;;;1505.05;999.90;;;27.60;99.90;;;;;;5034734;28;20036;-65
2023/08/20 00:46:56;;;;;;;1484.68;999.90;;;27.70;99.90;;;;;;5034948;28;20013;-65
2023/08/20 00:49:23;;;;;;;1427.55;999.90;;;27.70;99.90;;;;;;5034731;28;20029;-66
2023/08/20 00:51:50;;;;;;;1561.35;999.90;;;27.70;99.90;;;;;;5034681;28;20029;-69
2023/08/20 00:54:17;;;;;;;1545.82;999.90;;;27.80;99.90;;;;;;5034867;28;20029;-65
2023/08/20 00:56:45;;;;;;;1571.10;999.90;;;27.80;99.90;;;;;;5034679;28;20029;-68
2023/08/20 00:59:11;;;;;;;1566.55;999.90;;;27.80;99.90;;;;;;5034557;28;20091;-66
2023/08/20 01:01:38;;;;;;;1459.85;999.90;;;27.90;99.90;;;;;;5034733;28;20044;-65
2023/08/20 01:04:05;;;;;;;1502.57;999.90;;;27.90;99.90;;;;;;5034656;28;20022;-65
2023/08/20 01:06:45;;;;;;;1498.53;999.90;;;28.00;99.90;;;;;;5033606;28;20025;-65
2023/08/20 01:09:47;;;;;;;1309.40;999.90;;;27.90;99.90;;;;;;5034434;28;20021;-66
2023/08/20 01:12:14;;;;;;;867.03;783.60;;;28.00;99.90;;;;;;5034192;28;20501;-66
2023/08/20 01:14:41;;;;;;;923.33;833.42;;;28.00;99.90;;;;;;5034319;28;20033;-66
2023/08/20 01:17:07;;;;;;;1340.07;999.90;;;28.00;99.90;;;;;;5033735;28;20036;-65
2023/08/20 01:19:34;;;;;;;961.95;868.15;;;28.00;99.90;;;;;;5034267;28;20436;-66
2023/08/20 01:22:03;;;;;;;1250.57;999.90;;;28.10;99.90;;;;;;5036460;28;20024;-66
2023/08/20 01:24:51;;;;;;;1077.53;971.40;;;28.10;99.90;;;;;;5033972;28;20474;-68
2023/08/20 01:27:29;;;;;;;1140.82;999.90;;;28.10;99.90;;;;;;5034110;28;20021;-68
2023/08/20 01:29:57;;;;;;;1066.18;955.78;;;28.10;99.90;;;;;;5033940;28;20033;-68
2023/08/20 01:32:24;;;;;;;806.10;726.95;;;28.20;99.90;;;;;;5039453;28;20035;-66
2023/08/20 01:34:52;;;;;;;1261.85;999.90;;;28.20;99.90;;;;;;5053721;28;20017;-68
2023/08/20 01:37:18;;;;;;;1188.57;999.90;;;28.20;99.90;;;;;;5053666;28;20049;-66
2023/08/20 01:39:45;;;;;;;1086.35;978.42;;;28.20;99.90;;;;;;5043228;28;20033;-65
2023/08/20 01:42:11;;;;;;;1108.20;988.58;;;28.20;99.90;;;;;;5033899;28;20021;-69
2023/08/20 01:44:38;;;;;;;1349.30;999.90;;;28.20;99.90;;;;;;5033745;28;20421;-65
2023/08/20 01:47:04;;;;;;;1311.32;999.90;;;28.10;99.90;;;;;;5033902;28;20022;-68
2023/08/20 01:49:31;;;;;;;1021.30;920.35;;;28.20;99.90;;;;;;5033769;28;20393;-69
2023/08/20 01:51:57;;;;;;;1384.30;999.90;;;28.30;99.90;;;;;;5039376;28;20393;-73
2023/08/20 01:54:24;;;;;;;1218.78;999.90;;;28.30;99.90;;;;;;5049867;28;20086;-72
2023/08/20 01:56:50;;;;;;;1309.90;999.90;;;28.30;99.90;;;;;;5039718;28;20052;-69
2023/08/20 01:59:18;;;;;;;1174.18;999.90;;;28.40;99.90;;;;;;5056232;28;20036;-72
2023/08/20 02:01:45;;;;;;;740.35;663.78;;;28.40;99.90;;;;;;5052800;28;20033;-68
2023/08/20 02:04:11;;;;;;;941.97;848.00;;;28.50;99.90;;;;;;5034511;28;20475;-68
2023/08/20 02:06:38;;;;;;;992.88;893.20;;;28.50;99.90;;;;;;5050154;28;20035;-71
2023/08/20 02:09:04;;;;;;;1203.93;999.90;;;28.50;99.90;;;;;;5043692;28;20025;-72
2023/08/20 02:11:35;;;;;;;1234.70;999.90;;;28.50;99.90;;;;;;5039549;28;20080;-69
2023/08/20 02:14:02;;;;;;;1088.10;979.70;;;28.60;99.90;;;;;;5035987;28;20032;-68
2023/08/20 02:16:29;;;;;;;1216.25;999.90;;;28.60;99.90;;;;;;5057034;28;20028;-69
2023/08/20 02:18:56;;;;;;;1302.72;999.90;;;28.70;99.90;;;;;;5053450;28;20024;-70
2023/08/20 02:21:22;;;;;;;1557.13;999.90;;;28.70;99.90;;;;;;5037603;28;20029;-68
2023/08/20 02:23:49;;;;;;;1523.53;999.90;;;28.70;99.90;;;;;;5034169;28;20198;-71
2023/08/20 02:26:15;;;;;;;1358.43;999.90;;;28.80;99.90;;;;;;5033545;28;20028;-69
2023/08/20 02:28:42;;;;;;;1407.65;999.90;;;28.80;99.90;;;;;;5033024;28;20032;-68
2023/08/20 02:31:08;;;;;;;1522.90;999.90;;;28.80;99.90;;;;;;5033733;28;20482;-69
2023/08/20 02:33:35;;;;;;;1363.72;999.90;;;28.80;99.90;;;;;;5033387;28;20041;-70
2023/08/20 02:36:03;;;;;;;1340.90;999.90;;;28.80;99.90;;;;;;5033634;28;20076;-69
2023/08/20 02:38:30;;;;;;;1316.35;999.90;;;28.90;99.90;;;;;;5033688;28;20030;-69
2023/08/20 02:40:57;;;;;;;1284.18;999.90;;;29.00;99.90;;;;;;5033381;28;20064;-68
2023/08/20 02:43:23;;;;;;;1275.35;999.90;;;28.90;99.90;;;;;;5033148;28;20070;-69
2023/08/20 02:45:50;;;;;;;1155.13;999.90;;;28.90;99.90;;;;;;5033629;28;20014;-68
2023/08/20 02:48:17;;;;;;;1089.20;980.17;;;29.00;99.90;;;;;;5033420;28;20013;-66
2023/08/20 02:50:47;;;;;;;1037.25;935.00;;;29.00;99.90;;;;;;5033093;28;20045;-67
2023/08/20 02:53:13;;;;;;;1004.25;906.17;;;29.20;99.90;;;;;;5033374;28;20080;-68
2023/08/20 02:55:40;;;;;;;926.55;836.47;;;29.20;99.90;;;;;;5033480;28;20022;-70
2023/08/20 02:58:07;;;;;;;964.72;871.05;;;29.20;99.90;;;;;;5033295;28;20064;-69
2023/08/20 03:00:34;;;;;;;926.78;836.83;;;29.30;99.90;;;;;;5035403;28;20061;-69
2023/08/20 03:03:03;;;;;;;861.60;778.78;;;29.30;99.90;;;;;;5044394;28;20059;-69
2023/08/20 03:05:30;;;;;;;825.67;746.13;;;29.30;99.90;;;;;;5052806;28;20029;-70
2023/08/20 03:07:56;;;;;;;838.60;758.35;;;29.40;99.90;;;;;;5052898;28;20017;-70
2023/08/20 03:10:24;;;;;;;860.20;777.30;;;29.40;99.90;;;;;;5052841;28;20034;-70
2023/08/20 03:12:50;;;;;;;883.63;798.83;;;29.50;99.90;;;;;;5052924;28;20500;-67
2023/08/20 03:15:17;;;;;;;893.28;806.95;;;29.50;99.90;;;;;;5052913;28;20437;-67
2023/08/20 03:17:43;;;;;;;905.90;818.28;;;29.60;99.90;;;;;;5052556;28;20021;-67
2023/08/20 03:20:10;;;;;;;870.33;786.95;;;29.60;99.90;;;;;;5052820;28;20036;-66
2023/08/20 03:22:38;;;;;;;869.42;785.83;;;29.60;99.90;;;;;;5054060;28;20403;-66
2023/08/20 03:25:06;;;;;;;866.15;782.75;;;29.70;99.90;;;;;;5053342;28;20075;-66
2023/08/20 03:27:32;;;;;;;887.33;801.67;;;29.80;99.90;;;;;;5053442;28;20114;-67
2023/08/20 03:29:59;;;;;;;1087.43;982.83;;;29.80;99.90;;;;;;5056637;28;20021;-66
2023/08/20 03:32:26;;;;;;;1116.47;999.90;;;29.80;99.90;;;;;;5057062;28;20033;-66
2023/08/20 03:34:53;;;;;;;1042.25;940.58;;;29.90;99.90;;;;;;5057300;28;20033;-66
2023/08/20 03:37:21;;;;;;;1027.70;927.70;;;29.90;99.90;;;;;;5056936;28;20494;-66
2023/08/20 03:39:48;;;;;;;1071.90;966.90;;;29.90;99.90;;;;;;5056582;28;20029;-66
2023/08/20 03:42:14;;;;;;;1040.15;938.03;;;29.90;99.90;;;;;;5056687;28;20504;-65
2023/08/20 03:44:41;;;;;;;857.83;775.60;;;29.90;99.90;;;;;;5056867;28;20025;-66
2023/08/20 03:47:07;;;;;;;919.80;831.05;;;30.10;99.90;;;;;;5057009;28;20048;-66
2023/08/20 03:49:34;;;;;;;1052.35;949.85;;;30.20;99.90;;;;;;5056828;28;20021;-66
2023/08/20 03:52:01;;;;;;;1081.68;975.40;;;30.30;99.90;;;;;;5057177;28;20029;-66
2023/08/20 03:54:30;;;;;;;1162.93;999.90;;;30.40;99.90;;;;;;5056615;28;20029;-64
2023/08/20 03:56:56;;;;;;;1267.22;999.90;;;30.60;99.90;;;;;;5060502;28;20033;-65
2023/08/20 03:59:23;;;;;;;1154.68;999.90;;;30.70;99.90;;;;;;5076953;28;20090;-65
2023/08/20 04:01:49;;;;;;;1268.35;999.90;;;30.80;99.90;;;;;;5076907;28;20029;-65
2023/08/20 04:04:16;;;;;;;1333.10;999.90;;;30.90;99.90;;;;;;5076870;28;20405;-65
2023/08/20 04:06:42;;;;;;;1343.78;999.90;;;30.90;99.90;;;;;;5076425;28;20538;-66
2023/08/20 04:09:09;;;;;;;1227.35;999.90;;;30.90;99.90;;;;;;5076769;28;20020;-64
2023/08/20 04:11:36;;;;;;;1350.57;999.90;;;30.90;99.90;;;;;;5076642;28;20377;-64
2023/08/20 04:14:02;;;;;;;1368.38;999.90;;;31.00;99.90;;;;;;5076339;28;20096;-64
2023/08/20 04:16:30;;;;;;;1347.53;999.90;;;31.10;99.90;;;;;;5076274;28;20047;-64
2023/08/20 04:18:56;;;;;;;1334.03;999.90;;;31.20;99.90;;;;;;5076248;28;20020;-62
2023/08/20 04:21:23;;;;;;;1367.25;999.90;;;31.20;99.90;;;;;;5076106;28;20024;-65
2023/08/20 04:23:50;;;;;;;1381.32;999.90;;;31.10;99.90;;;;;;5075896;28;20425;-64
2023/08/20 04:26:16;;;;;;;1370.85;999.90;;;31.20;99.90;;;;;;5076078;28;20024;-63
2023/08/20 04:28:43;;;;;;;1363.00;999.90;;;31.20;99.90;;;;;;5075984;28;20469;-64
2023/08/20 04:31:09;;;;;;;1363.05;999.90;;;31.20;99.90;;;;;;5076207;28;20067;-65
2023/08/20 04:33:36;;;;;;;1481.57;999.90;;;31.20;99.90;;;;;;5076150;28;20105;-65
2023/08/20 04:36:02;;;;;;;1573.28;999.90;;;31.30;99.90;;;;;;5075156;28;20024;-65
2023/08/20 04:38:29;;;;;;;1587.15;999.90;;;31.30;99.90;;;;;;5047414;28;20041;-64
2023/08/20 04:40:55;;;;;;;1594.50;999.90;;;31.30;99.90;;;;;;5035904;28;20021;-65
2023/08/20 04:43:22;;;;;;;1574.50;999.90;;;31.30;99.90;;;;;;5035048;28;20076;-64
2023/08/20 04:45:50;;;;;;;1461.57;999.90;;;31.30;99.90;;;;;;5035523;28;20020;-65
2023/08/20 04:48:16;;;;;;;1388.28;999.90;;;31.40;99.90;;;;;;5075183;22;20049;-65
2023/08/20 04:50:43;;;;;;;1401.55;999.90;;;31.40;99.90;;;;;;5075280;28;20024;-64
2023/08/20 04:53:10;;;;;;;1383.93;999.90;;;31.40;99.90;;;;;;5075600;28;20025;-63
2023/08/20 04:55:36;;;;;;;1389.93;999.90;;;31.40;99.90;;;;;;5075535;28;20393;-63
2023/08/20 04:58:03;;;;;;;1362.38;999.90;;;31.40;99.90;;;;;;5075243;28;20292;-65
2023/08/20 05:00:29;;;;;;;1370.38;999.90;;;31.50;99.90;;;;;;5075268;28;20062;-65
2023/08/20 05:02:56;;;;;;;1327.70;999.90;;;31.50;99.90;;;;;;5075096;28;20135;-65
2023/08/20 05:05:23;;;;;;;1343.47;999.90;;;31.50;99.90;;;;;;5075033;28;20021;-64
2023/08/20 05:07:49;;;;;;;1396.05;999.90;;;31.50;99.90;;;;;;5075260;28;20393;-65
2023/08/20 05:10:16;;;;;;;1314.38;999.90;;;31.60;99.90;;;;;;5074719;28;20028;-64
2023/08/20 05:12:42;;;;;;;1392.07;999.90;;;31.60;99.90;;;;;;5074758;28;20017;-64
2023/08/20 05:15:09;;;;;;;1379.15;999.90;;;31.60;99.90;;;;;;5074719;28;20082;-64
2023/08/20 05:17:36;;;;;;;1377.00;999.90;;;31.60;99.90;;;;;;5074455;28;20031;-66
2023/08/20 05:20:03;;;;;;;1341.63;999.90;;;31.70;99.90;;;;;;5045277;28;20036;-68
2023/08/20 05:22:30;;;;;;;1306.38;999.90;;;31.70;99.90;;;;;;5044385;28;20107;-64
2023/08/20 05:24:56;;;;;;;1338.93;999.90;;;31.80;99.90;;;;;;5042665;28;20017;-66
2023/08/20 05:27:23;;;;;;;1370.35;999.90;;;31.90;99.90;;;;;;5044232;28;20071;-67
2023/08/20 05:29:49;;;;;;;1273.05;999.90;;;32.00;99.90;;;;;;5044558;28;20010;-67
2023/08/20 05:32:16;;;;;;;1272.40;999.90;;;32.10;99.90;;;;;;5041767;28;20104;-67
2023/08/20 05:34:42;;;;;;;1387.78;999.90;;;32.20;99.90;;;;;;5043488;28;20021;-67
2023/08/20 05:37:09;;;;;;;1475.63;999.90;;;32.40;99.90;;;;;;5050146;28;20032;-66
2023/08/20 05:39:41;;;;;;;1505.10;999.90;;;32.40;99.90;;;;;;5054692;28;20021;-66
2023/08/20 05:42:08;;;;;;;1560.47;999.90;;;32.50;99.90;;;;;;5054089;28;20025;-67
2023/08/20 05:44:34;;;;;;;1541.90;999.90;;;32.50;99.90;;;;;;5054630;28;20090;-66
2023/08/20 05:47:01;;;;;;;1501.80;999.90;;;32.60;99.90;;;;;;5054679;28;20017;-65
2023/08/20 05:49:28;;;;;;;1413.38;999.90;;;32.60;99.90;;;;;;5053955;28;20041;-66
2023/08/20 05:51:54;;;;;;;1399.10;999.90;;;32.70;99.90;;;;;;5053320;28;20025;-67
2023/08/20 05:54:21;;;;;;;1400.53;999.90;;;32.70;99.90;;;;;;5063803;28;20025;-66
2023/08/20 05:59:18;;;;;;;1582.75;999.90;;;32.80;99.90;;;;;;5085857;28;20052;-67
2023/08/20 06:01:44;;;;;;;1608.28;999.90;;;32.80;99.90;;;;;;5074310;28;20039;-67
2023/08/20 06:04:11;;;;;;;1588.07;999.90;;;32.90;99.90;;;;;;5073972;28;20047;-66
2023/08/20 06:06:37;;;;;;;1418.78;999.90;;;32.90;99.90;;;;;;5073929;28;20081;-67
2023/08/20 06:09:04;;;;;;;1499.20;999.90;;;32.90;99.90;;;;;;5074345;28;20099;-67
2023/08/20 06:11:30;;;;;;;1379.22;999.90;;;32.90;99.90;;;;;;5074009;28;20036;-66
2023/08/20 06:13:57;;;;;;;1361.72;999.90;;;32.90;99.90;;;;;;5073989;28;20044;-67
2023/08/20 06:16:23;;;;;;;1392.13;999.90;;;32.90;99.90;;;;;;5073902;28;20063;-64
2023/08/20 06:18:50;;;;;;;1358.63;999.90;;;33.00;99.90;;;;;;5073944;28;20095;-65
2023/08/20 06:21:16;;;;;;;1025.82;925.13;;;33.10;99.90;;;;;;5073686;28;20477;-65
2023/08/20 06:23:43;;;;;;;1025.82;925.25;;;33.10;99.90;;;;;;5074096;28;20024;-65
2023/08/20 06:26:10;;;;;;;923.05;833.85;;;33.20;99.90;;;;;;5074050;28;20104;-64
2023/08/20 06:28:36;;;;;;;962.13;869.15;;;33.20;99.90;;;;;;5087610;28;20020;-65
2023/08/20 06:31:03;;;;;;;1232.93;999.90;;;33.10;99.90;;;;;;5074152;28;20017;-64
2023/08/20 06:33:29;;;;;;;1193.60;999.90;;;33.20;99.90;;;;;;5080712;28;20107;-64
2023/08/20 06:35:56;;;;;;;1108.97;993.10;;;33.30;99.90;;;;;;5093623;28;20020;-64
2023/08/20 06:38:22;;;;;;;1396.25;999.90;;;33.40;99.90;;;;;;5093653;28;20024;-64
2023/08/20 06:40:50;;;;;;;1386.57;999.90;;;33.50;99.90;;;;;;5093638;28;20370;-65
2023/08/20 06:43:16;;;;;;;1253.47;999.90;;;33.60;99.90;;;;;;5093691;28;20052;-65
2023/08/20 06:45:43;;;;;;;1323.07;999.90;;;33.60;99.90;;;;;;5093812;28;20074;-65
2023/08/20 06:48:09;;;;;;;1201.78;999.90;;;33.60;99.90;;;;;;5093821;28;20092;-65
2023/08/20 06:50:36;;;;;;;1210.20;999.90;;;33.70;99.90;;;;;;5093458;28;20440;-64
2023/08/20 06:53:03;;;;;;;1160.05;999.90;;;33.70;99.90;;;;;;5093754;28;20028;-65
2023/08/20 06:55:29;;;;;;;1094.13;987.15;;;33.80;99.90;;;;;;5093566;28;20457;-64
2023/08/20 06:57:55;;;;;;;938.40;846.95;;;33.90;99.90;;;;;;5092958;28;20043;-67
2023/08/20 07:00:22;;;;;;;968.63;873.80;;;33.90;99.90;;;;;;5092921;28;20415;-64
2023/08/20 07:02:49;;;;;;;861.13;777.40;;;34.00;99.90;;;;;;5093159;28;20032;-64
2023/08/20 07:05:16;;;;;;;738.72;667.17;;;34.10;99.90;;;;;;5096368;28;20050;-66
2023/08/20 07:07:45;;;;;;;903.35;815.75;;;34.00;99.90;;;;;;5096731;28;20016;-65
2023/08/20 07:10:12;;;;;;;916.85;827.63;;;34.10;99.90;;;;;;5096767;28;20380;-69
2023/08/20 07:12:38;;;;;;;930.85;839.80;;;34.10;99.90;;;;;;5096843;28;20363;-68
2023/08/20 07:15:06;;;;;;;979.25;883.55;;;34.00;99.90;;;;;;5096389;28;20093;-69
2023/08/20 07:17:32;;;;;;;971.60;875.70;;;34.00;99.90;;;;;;5096483;28;20093;-68
2023/08/20 07:19:59;;;;;;;975.25;879.30;;;34.00;99.90;;;;;;5096463;28;20022;-66
2023/08/20 07:22:26;;;;;;;1312.82;999.90;;;33.90;99.90;;;;;;5093183;28;20028;-67
2023/08/20 07:24:52;;;;;;;1366.35;999.90;;;33.90;99.90;;;;;;5085005;28;20025;-66
2023/08/20 07:27:19;;;;;;;1536.53;999.90;;;33.80;99.90;;;;;;5075987;28;20420;-67
2023/08/20 07:29:45;;;;;;;1332.47;999.90;;;33.80;99.90;;;;;;5075867;28;20030;-66
2023/08/20 07:32:12;;;;;;;1140.90;999.90;;;33.90;99.90;;;;;;5076072;28;20031;-65
2023/08/20 07:34:38;;;;;;;892.55;805.90;;;33.90;99.90;;;;;;5075770;28;20445;-66
2023/08/20 07:37:06;;;;;;;844.65;763.45;;;34.00;99.90;;;;;;5079239;28;20104;-64
2023/08/20 07:39:32;;;;;;;707.60;638.42;;;34.00;99.90;;;;;;5083071;28;20029;-63
2023/08/20 07:42:00;;;;;;;705.72;636.55;;;33.90;99.90;;;;;;5075998;28;20481;-66
2023/08/20 07:44:27;;;;;;;569.08;511.35;;;34.00;99.90;;;;;;5075645;28;20020;-68
2023/08/20 07:46:54;;;;;;;1275.88;999.90;;;34.20;99.90;;;;;;5075666;28;20484;-68
2023/08/20 07:49:20;;;;;;;898.35;810.72;;;34.20;99.90;;;;;;5075883;28;20025;-71
2023/08/20 07:51:48;;;;;;;831.35;750.35;;;34.20;99.90;;;;;;5075627;28;20028;-65
2023/08/20 07:54:15;;;;;;;770.55;695.75;;;34.10;99.90;;;;;;5075500;28;20465;-67
2023/08/20 07:56:41;;;;;;;799.67;722.17;;;34.00;99.90;;;;;;5075556;28;20025;-70
2023/08/20 07:59:08;;;;;;;739.03;667.08;;;33.90;99.90;;;;;;5075275;28;20598;-71
2023/08/20 08:01:34;;;;;;;700.80;632.17;;;33.90;99.90;;;;;;5075458;28;20060;-71
2023/08/20 08:04:01;;;;;;;716.70;647.00;;;33.80;99.90;;;;;;5075602;28;20021;-70
2023/08/20 08:06:27;;;;;;;752.20;678.35;;;33.70;99.90;;;;;;5075353;28;20469;-71
2023/08/20 08:08:54;;;;;;;752.95;679.28;;;33.60;99.90;;;;;;5075483;28;20049;-67
2023/08/20 08:11:20;;;;;;;756.50;682.42;;;33.50;99.90;;;;;;5075521;28;20174;-67
2023/08/20 08:13:47;;;;;;;740.95;668.10;;;33.40;99.90;;;;;;5077689;28;20115;-67
2023/08/20 08:16:13;;;;;;;871.20;786.20;;;33.30;99.90;;;;;;5083662;28;20392;-70
2023/08/20 08:18:40;;;;;;;740.38;667.17;;;33.30;99.90;;;;;;5075181;28;20107;-70
2023/08/20 08:21:07;;;;;;;598.15;537.53;;;33.30;99.90;;;;;;5075003;28;20055;-67
2023/08/20 08:23:33;;;;;;;669.88;603.97;;;33.20;99.90;;;;;;5075202;28;20012;-69
2023/08/20 08:26:00;;;;;;;613.63;551.70;;;33.10;99.90;;;;;;5080936;28;20393;-67
2023/08/20 08:28:26;;;;;;;602.20;541.28;;;33.20;99.90;;;;;;5078518;28;20039;-70
2023/08/20 08:30:53;;;;;;;619.22;556.70;;;33.10;99.90;;;;;;5074982;28;20024;-72
2023/08/20 08:33:19;;;;;;;540.03;484.88;;;33.10;99.90;;;;;;5075042;28;20019;-67
2023/08/20 08:35:46;;;;;;;586.65;527.28;;;33.00;99.90;;;;;;5075113;28;20031;-71
2023/08/20 08:38:12;;;;;;;506.88;453.83;;;33.00;99.90;;;;;;5074841;28;20017;-68
2023/08/20 08:40:42;;;;;;;525.17;470.75;;;33.00;99.90;;;;;;5074783;28;20596;-68
2023/08/20 08:43:16;;;;;;;537.80;482.52;;;33.10;99.90;;;;;;5074457;28;20044;-64
2023/08/20 08:45:46;;;;;;;528.53;474.00;;;33.20;99.90;;;;;;5074517;28;20020;-64
2023/08/20 08:48:13;;;;;;;515.63;462.88;;;33.20;99.90;;;;;;5074494;28;20029;-64
2023/08/20 08:50:40;;;;;;;485.35;434.58;;;33.20;99.90;;;;;;5074595;28;20024;-66
2023/08/20 08:53:08;;;;;;;517.63;464.45;;;33.30;99.90;;;;;;5074640;28;20024;-66
2023/08/20 08:55:34;;;;;;;544.08;488.48;;;33.30;99.90;;;;;;5077110;28;20105;-66
2023/08/20 08:58:01;;;;;;;404.27;362.30;;;33.40;99.90;;;;;;5093089;28;20444;-66
2023/08/20 09:00:29;;;;;;;501.45;449.77;;;33.40;99.90;;;;;;5094780;28;20024;-64
2023/08/20 09:02:56;;;;;;;518.80;465.27;;;33.30;99.90;;;;;;5094219;28;20028;-65
2023/08/20 09:05:22;;;;;;;542.92;487.33;;;33.20;99.90;;;;;;5094508;28;20465;-65
2023/08/20 09:07:57;;;;;;;524.80;470.60;;;33.20;99.90;;;;;;5094663;28;20102;-67
2023/08/20 09:10:27;;;;;;;509.95;456.83;;;33.10;99.90;;;;;;5094604;28;20020;-66
2023/08/20 09:12:56;;;;;;;505.40;452.65;;;33.10;99.90;;;;;;5094324;28;20028;-65
2023/08/20 09:15:33;;;;;;;504.40;451.80;;;33.00;99.90;;;;;;5094734;28;20031;-65
2023/08/20 09:18:03;;;;;;;573.70;515.45;;;33.00;99.90;;;;;;5094279;28;20024;-66
2023/08/20 09:20:38;;;;;;;618.72;556.38;;;33.00;99.90;;;;;;5094338;28;20107;-65
2023/08/20 09:23:14;;;;;;;637.22;573.28;;;32.90;99.90;;;;;;5094345;28;20016;-66
2023/08/20 09:25:42;;;;;;;786.60;709.53;;;33.00;99.90;;;;;;5093707;28;20034;-64
2023/08/20 09:28:08;;;;;;;820.88;740.45;;;33.00;99.90;;;;;;5093836;28;20020;-68
2023/08/20 09:30:35;;;;;;;1241.68;999.90;;;33.00;99.90;;;;;;5094051;28;20020;-64
2023/08/20 09:33:05;;;;;;;953.38;858.38;;;33.00;99.90;;;;;;5094313;28;20425;-65
2023/08/20 09:35:31;;;;;;;1116.72;990.50;;;33.10;99.90;;;;;;5094098;28;20111;-65
2023/08/20 09:38:03;;;;;;;791.88;713.78;;;33.10;99.90;;;;;;5093885;28;20388;-66
2023/08/20 09:40:30;;;;;;;1037.88;935.17;;;33.10;99.90;;;;;;5094087;28;20380;-64
2023/08/20 09:42:57;;;;;;;1358.25;999.90;;;33.10;99.90;;;;;;5093879;28;20074;-65
2023/08/20 09:45:27;;;;;;;1530.25;999.90;;;33.10;99.90;;;;;;5093409;28;20097;-69
2023/08/20 09:47:57;;;;;;;1571.75;999.90;;;33.10;99.90;;;;;;5093918;28;20404;-68
2023/08/20 09:50:25;;;;;;;1545.32;999.90;;;33.10;99.90;;;;;;5093919;28;20016;-65
2023/08/20 09:53:12;;;;;;;1536.45;999.90;;;33.00;99.90;;;;;;5093782;28;20046;-65
2023/08/20 09:55:41;;;;;;;1544.88;999.90;;;33.00;99.90;;;;;;5093826;28;20056;-65
2023/08/20 09:58:08;;;;;;;1574.50;999.90;;;33.00;99.90;;;;;;5093451;28;20115;-66
2023/08/20 10:00:35;;;;;;;1559.90;999.90;;;32.90;99.90;;;;;;5093758;28;20553;-66
2023/08/20 10:03:03;;;;;;;1541.70;999.90;;;32.90;99.90;;;;;;5093523;28;20032;-69
2023/08/20 10:05:31;;;;;;;1566.90;999.90;;;32.80;99.90;;;;;;5091750;28;20024;-69
2023/08/20 10:07:59;;;;;;;1575.85;999.90;;;32.80;99.90;;;;;;5082674;28;20070;-69
2023/08/20 10:10:27;;;;;;;1570.78;999.90;;;32.70;99.90;;;;;;5093552;28;20020;-67
2023/08/20 10:12:53;;;;;;;1572.70;999.90;;;32.70;99.90;;;;;;5093003;28;20476;-66
2023/08/20 10:15:23;;;;;;;1570.75;999.90;;;32.70;99.90;;;;;;5093639;28;20045;-65
2023/08/20 10:17:50;;;;;;;1580.38;999.90;;;32.70;99.90;;;;;;5093296;28;20028;-68
2023/08/20 10:20:19;;;;;;;1580.40;999.90;;;32.80;99.90;;;;;;5093394;28;20044;-68
2023/08/20 10:22:50;;;;;;;1551.97;999.90;;;32.70;99.90;;;;;;5093360;28;20024;-66
2023/08/20 10:25:26;;;;;;;1499.70;999.90;;;32.70;99.90;;;;;;5093283;28;20504;-72
2023/08/20 10:27:54;;;;;;;1568.13;999.90;;;32.60;99.90;;;;;;5093481;28;20071;-67
2023/08/20 10:30:25;;;;;;;1541.88;999.90;;;32.50;99.90;;;;;;5093434;28;20024;-64
2023/08/20 10:32:56;;;;;;;1569.13;999.90;;;32.50;99.90;;;;;;5092636;28;20024;-63
2023/08/20 10:35:24;;;;;;;1567.25;999.90;;;32.40;99.90;;;;;;5093356;28;20419;-64
2023/08/20 10:38:04;;;;;;;1560.35;999.90;;;32.40;99.90;;;;;;5094905;28;20105;-63
2023/08/20 10:40:51;;;;;;;1525.38;999.90;;;32.30;99.90;;;;;;5097433;28;20081;-65
2023/08/20 10:43:29;;;;;;;1547.63;999.90;;;32.30;99.90;;;;;;5097176;28;20024;-63
2023/08/20 10:46:09;;;;;;;1533.47;999.90;;;32.20;99.90;;;;;;5094290;28;20016;-65
2023/08/20 10:48:38;;;;;;;1540.70;999.90;;;32.10;99.90;;;;;;5093128;28;20052;-63
2023/08/20 10:51:13;;;;;;;1562.05;999.90;;;32.10;99.90;;;;;;5096988;28;20478;-64
2023/08/20 10:53:42;;;;;;;1568.85;999.90;;;32.00;99.90;;;;;;5097167;28;20028;-63
2023/08/20 10:56:18;;;;;;;1538.93;999.90;;;32.00;99.90;;;;;;5094548;28;20452;-63
2023/08/20 10:58:47;;;;;;;1542.65;999.90;;;31.90;99.90;;;;;;5096721;28;20045;-67
2023/08/20 11:01:22;;;;;;;1553.80;999.90;;;31.90;99.90;;;;;;5096548;28;20012;-63
2023/08/20 11:03:51;;;;;;;1340.13;999.90;;;31.80;99.90;;;;;;5093869;28;20044;-65
2023/08/20 11:06:18;;;;;;;1403.57;999.90;;;31.80;99.90;;;;;;5096550;28;20046;-64
2023/08/20 11:08:46;;;;;;;1145.45;999.90;;;31.70;99.90;;;;;;5096436;28;20020;-64
2023/08/20 11:11:12;;;;;;;1123.90;999.90;;;31.70;99.90;;;;;;5095363;28;20449;-64
2023/08/20 11:13:40;;;;;;;986.88;888.85;;;31.70;99.90;;;;;;5095490;28;20082;-66
2023/08/20 11:16:07;;;;;;;899.13;810.50;;;31.70;99.90;;;;;;5097206;28;20036;-63
2023/08/20 11:18:34;;;;;;;916.45;825.00;;;31.60;99.90;;;;;;5096952;28;20024;-63
2023/08/20 11:21:01;;;;;;;825.57;745.17;;;31.60;99.90;;;;;;5096695;28;20076;-65
2023/08/20 11:23:29;;;;;;;857.53;773.65;;;31.50;99.90;;;;;;5096727;28;20608;-63
2023/08/20 11:25:56;;;;;;;715.78;644.97;;;31.50;99.90;;;;;;5096614;28;20020;-66
2023/08/20 11:28:24;;;;;;;725.47;653.00;;;31.50;99.90;;;;;;5096671;28;20025;-63
2023/08/20 11:30:51;;;;;;;600.47;539.25;;;31.50;99.90;;;;;;5096618;28;20028;-64
2023/08/20 11:33:18;;;;;;;801.63;722.67;;;31.40;99.90;;;;;;5089417;28;20366;-64
2023/08/20 11:35:45;;;;;;;764.95;689.63;;;31.40;99.90;;;;;;5084008;28;20469;-64
2023/08/20 11:38:12;;;;;;;831.80;750.45;;;31.40;99.90;;;;;;5075870;28;20036;-64
2023/08/20 11:40:38;;;;;;;795.42;717.47;;;31.40;99.90;;;;;;5075941;28;20436;-63
2023/08/20 11:43:06;;;;;;;734.42;660.70;;;31.40;99.90;;;;;;5075932;28;20058;-63
2023/08/20 11:45:33;;;;;;;551.00;494.45;;;31.30;99.90;;;;;;5080911;28;20028;-63
2023/08/20 11:48:00;;;;;;;608.53;546.72;;;31.40;99.90;;;;;;5096662;28;20028;-63
2023/08/20 11:50:27;;;;;;;611.70;549.75;;;31.30;99.90;;;;;;5095203;28;20031;-63
2023/08/20 11:52:54;;;;;;;611.15;549.97;;;31.20;99.90;;;;;;5095874;28;20074;-65
2023/08/20 11:55:25;;;;;;;432.70;387.13;;;31.20;99.90;;;;;;5096209;28;20028;-63
2023/08/20 11:57:53;;;;;;;422.67;378.80;;;31.20;99.90;;;;;;5095804;28;20431;-62
2023/08/20 12:00:32;;;;;;;333.42;300.50;;;31.10;99.90;;;;;;5095779;28;20080;-64
2023/08/20 12:02:59;;;;;;;337.75;303.70;;;31.10;99.90;;;;;;5095711;28;20035;-63
2023/08/20 12:05:28;;;;;;;420.10;375.80;;;31.00;99.90;;;;;;5087448;28;20028;-64
2023/08/20 12:08:04;;;;;;;417.73;373.40;;;31.00;99.90;;;;;;5087657;28;20035;-68
2023/08/20 12:10:33;;;;;;;563.05;504.90;;;31.00;99.90;;;;;;5077032;28;20463;-65